createdAt,value
2023-04-17T00:01:23.756Z,5.91
2023-04-17T00:03:52.836Z,6.03
2023-04-17T00:06:19.645Z,5.98
2023-04-17T00:08:46.286Z,5.99
2023-04-17T00:11:12.993Z,6.06
2023-04-17T00:13:39.683Z,5.96
2023-04-17T00:16:06.909Z,5.89
2023-04-17T00:18:33.582Z,5.93
2023-04-17T00:21:00.303Z,5.88
2023-04-17T00:23:26.924Z,5.83
2023-04-17T00:25:53.800Z,5.83
2023-04-17T00:28:20.727Z,5.87
2023-04-17T00:30:47.393Z,5.89
2023-04-17T00:33:14.039Z,5.89
2023-04-17T00:35:40.799Z,5.87
2023-04-17T00:38:09.216Z,5.79
2023-04-17T00:40:36.494Z,5.83
2023-04-17T00:43:04.217Z,5.84
2023-04-17T00:45:31.286Z,5.91
2023-04-17T00:47:59.246Z,5.96
2023-04-17T00:50:27.710Z,5.97
2023-04-17T00:52:54.721Z,6.01
2023-04-17T00:55:21.645Z,5.79
2023-04-17T00:57:51.296Z,5.94
2023-04-17T01:00:18.537Z,5.87
2023-04-17T01:02:46.685Z,5.80
2023-04-17T01:05:13.596Z,5.84
2023-04-17T01:07:41.320Z,5.85
2023-04-17T01:10:08.751Z,5.80
2023-04-17T01:12:35.939Z,5.80
2023-04-17T01:15:02.612Z,5.78
2023-04-17T01:17:29.438Z,5.93
2023-04-17T01:19:57.430Z,5.87
2023-04-17T01:22:24.107Z,5.80
2023-04-17T01:24:50.962Z,5.74
2023-04-17T01:27:17.720Z,5.78
2023-04-17T01:29:44.726Z,5.74
2023-04-17T01:32:11.435Z,5.73
2023-04-17T01:34:38.085Z,5.72
2023-04-17T01:37:04.951Z,5.58
2023-04-17T01:39:31.666Z,5.71
2023-04-17T01:41:58.300Z,5.57
2023-04-17T01:44:24.996Z,5.71
2023-04-17T01:46:51.837Z,5.59
2023-04-17T01:49:18.534Z,5.63
2023-04-17T01:51:45.212Z,5.62
2023-04-17T01:54:11.837Z,5.62
2023-04-17T01:56:38.533Z,5.50
2023-04-17T01:59:05.162Z,5.43
2023-04-17T02:01:31.884Z,5.44
2023-04-17T02:03:58.703Z,5.42
2023-04-17T02:06:27.395Z,5.31
2023-04-17T02:08:54.210Z,5.27
2023-04-17T02:11:21.026Z,5.26
2023-04-17T02:13:47.728Z,5.22
2023-04-17T02:16:14.527Z,5.22
2023-04-17T02:18:41.409Z,5.18
2023-04-17T02:21:09.727Z,5.08
2023-04-17T02:23:36.641Z,5.03
2023-04-17T02:26:03.322Z,5.08
2023-04-17T02:28:30.096Z,5.12
2023-04-17T02:30:56.978Z,5.00
2023-04-17T02:33:23.710Z,4.96
2023-04-17T02:35:50.562Z,4.98
2023-04-17T02:38:17.516Z,4.83
2023-04-17T02:40:45.673Z,4.79
2023-04-17T02:43:14.094Z,4.69
2023-04-17T02:45:40.868Z,4.84
2023-04-17T02:48:07.552Z,4.90
2023-04-17T02:50:34.167Z,4.84
2023-04-17T02:53:00.990Z,4.82
2023-04-17T02:55:27.692Z,4.78
2023-04-17T02:57:54.317Z,4.70
2023-04-17T03:00:21.376Z,4.70
2023-04-17T03:02:48.253Z,4.62
2023-04-17T03:05:16.000Z,4.59
2023-04-17T03:07:42.715Z,4.62
2023-04-17T03:10:09.708Z,4.60
2023-04-17T03:12:36.343Z,4.52
2023-04-17T03:15:03.048Z,4.54
2023-04-17T03:17:29.714Z,4.48
2023-04-17T03:19:56.527Z,4.50
2023-04-17T03:22:23.143Z,4.47
2023-04-17T03:24:49.742Z,4.41
2023-04-17T03:27:16.374Z,4.37
2023-04-17T03:29:42.972Z,4.46
2023-04-17T03:32:09.704Z,4.42
2023-04-17T03:34:36.375Z,4.35
2023-04-17T03:37:03.021Z,4.45
2023-04-17T03:39:29.593Z,4.42
2023-04-17T03:41:56.366Z,4.45
2023-04-17T03:44:22.992Z,4.40
2023-04-17T03:46:50.624Z,4.47
2023-04-17T03:49:17.245Z,4.51
2023-04-17T03:51:43.944Z,4.43
2023-04-17T03:54:10.574Z,4.37
2023-04-17T03:56:37.408Z,4.44
2023-04-17T03:59:07.059Z,4.44
2023-04-17T04:01:34.274Z,4.42
2023-04-17T04:04:01.818Z,4.34
2023-04-17T04:06:29.757Z,4.38
2023-04-17T04:08:57.142Z,4.39
2023-04-17T04:11:23.770Z,4.44
2023-04-17T04:13:50.432Z,4.40
2023-04-17T04:16:17.156Z,4.38
2023-04-17T04:18:43.799Z,4.39
2023-04-17T04:21:12.337Z,4.44
2023-04-17T04:23:41.273Z,4.43
2023-04-17T04:26:08.090Z,4.44
2023-04-17T04:28:34.737Z,4.55
2023-04-17T04:31:02.766Z,4.62
2023-04-17T04:33:29.936Z,4.76
2023-04-17T04:36:01.805Z,4.65
2023-04-17T04:38:32.872Z,4.67
2023-04-17T04:41:01.592Z,4.80
2023-04-17T04:43:29.112Z,4.78
2023-04-17T04:45:56.108Z,4.82
2023-04-17T04:48:22.917Z,4.77
2023-04-17T04:50:49.812Z,4.88
2023-04-17T04:53:16.638Z,4.89
2023-04-17T04:55:43.356Z,4.97
2023-04-17T04:58:10.044Z,4.98
2023-04-17T05:00:37.115Z,5.02
2023-04-17T05:03:04.014Z,5.15
2023-04-17T05:05:31.014Z,5.12
2023-04-17T05:07:57.704Z,5.19
2023-04-17T05:10:24.513Z,5.25
2023-04-17T05:12:51.201Z,5.27
2023-04-17T05:15:17.942Z,5.31
2023-04-17T05:17:44.942Z,5.30
2023-04-17T05:20:15.080Z,5.25
2023-04-17T05:22:42.074Z,5.32
2023-04-17T05:25:08.890Z,5.45
2023-04-17T05:27:35.615Z,5.55
2023-04-17T05:30:02.384Z,5.61
2023-04-17T05:32:31.276Z,5.67
2023-04-17T05:34:58.123Z,5.80
2023-04-17T05:37:24.930Z,5.90
2023-04-17T05:39:51.649Z,5.85
2023-04-17T05:42:18.454Z,5.89
2023-04-17T05:44:45.990Z,5.82
2023-04-17T05:47:12.875Z,5.73
2023-04-17T05:49:39.664Z,5.87
2023-04-17T05:52:07.997Z,6.02
2023-04-17T05:54:34.703Z,6.23
2023-04-17T05:57:02.386Z,6.26
2023-04-17T05:59:31.410Z,6.20
2023-04-17T06:01:59.589Z,6.13
2023-04-17T06:04:26.729Z,6.12
2023-04-17T06:06:53.773Z,6.15
2023-04-17T06:09:22.034Z,6.52
2023-04-17T06:11:49.774Z,6.56
2023-04-17T06:14:16.783Z,6.71
2023-04-17T06:16:43.744Z,6.70
2023-04-17T06:19:11.430Z,6.90
2023-04-17T06:21:38.403Z,6.95
2023-04-17T06:24:05.431Z,7.22
2023-04-17T06:26:32.221Z,7.84
2023-04-17T06:28:58.923Z,8.26
2023-04-17T06:31:25.655Z,8.72
2023-04-17T06:33:52.441Z,8.78
2023-04-17T06:36:19.088Z,8.64
2023-04-17T06:38:47.289Z,8.78
2023-04-17T06:41:14.568Z,8.87
2023-04-17T06:43:41.305Z,8.41
2023-04-17T06:46:08.155Z,8.03
2023-04-17T06:48:34.928Z,8.39
2023-04-17T06:51:02.835Z,8.18
2023-04-17T06:53:29.641Z,8.27
2023-04-17T06:55:56.341Z,8.34
2023-04-17T06:58:23.103Z,7.82
2023-04-17T07:00:49.824Z,7.78
2023-04-17T07:03:16.738Z,7.48
2023-04-17T07:05:44.354Z,7.70
2023-04-17T07:08:11.114Z,7.50
2023-04-17T07:10:37.813Z,7.59
2023-04-17T07:13:04.604Z,7.53
2023-04-17T07:15:31.573Z,7.68
2023-04-17T07:17:58.391Z,7.41
2023-04-17T07:20:25.347Z,7.27
2023-04-17T07:22:52.074Z,7.45
2023-04-17T07:25:20.034Z,7.41
2023-04-17T07:27:46.783Z,7.51
2023-04-17T07:30:13.581Z,7.62
2023-04-17T07:32:40.423Z,7.85
2023-04-17T07:35:07.770Z,8.03
2023-04-17T07:37:34.807Z,7.90
2023-04-17T07:40:01.508Z,7.96
2023-04-17T07:42:29.282Z,8.00
2023-04-17T07:44:57.566Z,8.05
2023-04-17T07:47:24.406Z,8.06
2023-04-17T07:49:51.495Z,8.24
2023-04-17T07:52:18.321Z,8.29
2023-04-17T07:54:45.658Z,8.37
2023-04-17T07:57:12.410Z,8.47
2023-04-17T07:59:39.116Z,8.61
2023-04-17T08:02:06.039Z,8.47
2023-04-17T08:04:33.477Z,8.22
2023-04-17T08:07:00.279Z,8.45
2023-04-17T08:09:26.899Z,8.33
2023-04-17T08:11:57.414Z,8.65
2023-04-17T08:14:25.032Z,8.31
2023-04-17T08:16:51.888Z,8.58
2023-04-17T08:19:18.716Z,8.49
2023-04-17T08:21:47.718Z,8.35
2023-04-17T08:24:14.457Z,8.60
2023-04-17T08:26:41.541Z,8.60
2023-04-17T08:29:08.199Z,8.41
2023-04-17T08:31:39.870Z,8.70
2023-04-17T08:34:14.554Z,8.84
2023-04-17T08:36:42.754Z,8.98
2023-04-17T08:39:11.197Z,9.22
2023-04-17T08:41:51.096Z,9.17
2023-04-17T08:44:20.601Z,9.32
2023-04-17T08:46:47.651Z,9.30
2023-04-17T08:49:14.975Z,9.56
2023-04-17T08:51:42.257Z,9.52
2023-04-17T08:54:10.243Z,9.53
2023-04-17T08:56:36.885Z,9.82
2023-04-17T08:59:04.574Z,9.26
2023-04-17T09:01:31.305Z,8.87
2023-04-17T09:03:58.279Z,8.98
2023-04-17T09:06:25.039Z,9.46
2023-04-17T09:09:00.418Z,9.64
2023-04-17T09:11:27.566Z,9.61
2023-04-17T09:13:54.502Z,9.75
2023-04-17T09:16:21.250Z,9.40
2023-04-17T09:18:48.144Z,9.52
2023-04-17T09:21:19.143Z,9.32
2023-04-17T09:23:51.252Z,9.63
2023-04-17T09:26:24.149Z,9.83
2023-04-17T09:29:00.984Z,9.73
2023-04-17T09:31:30.477Z,9.69
2023-04-17T09:34:02.597Z,9.44
2023-04-17T09:36:31.267Z,9.93
2023-04-17T09:39:04.488Z,10.15
2023-04-17T09:41:32.044Z,10.08
2023-04-17T09:44:02.029Z,9.80
2023-04-17T09:46:38.170Z,9.93
2023-04-17T09:49:18.878Z,9.52
2023-04-17T09:51:46.466Z,9.58
2023-04-17T09:54:15.047Z,9.72
2023-04-17T09:56:42.281Z,9.85
2023-04-17T09:59:09.877Z,9.67
2023-04-17T10:01:37.913Z,9.50
2023-04-17T10:04:05.523Z,9.82
2023-04-17T10:06:32.855Z,9.97
2023-04-17T10:08:59.646Z,10.18
2023-04-17T10:11:30.169Z,10.27
2023-04-17T10:14:10.674Z,9.87
2023-04-17T10:16:39.244Z,10.09
2023-04-17T10:19:29.793Z,9.70
2023-04-17T10:22:18.008Z,9.76
2023-04-17T10:24:45.695Z,9.70
2023-04-17T10:27:24.552Z,9.54
2023-04-17T10:29:59.235Z,9.73
2023-04-17T10:32:29.077Z,9.37
2023-04-17T10:35:00.973Z,9.28
2023-04-17T10:37:52.567Z,9.45
2023-04-17T10:40:24.060Z,9.96
2023-04-17T10:43:22.858Z,9.85
2023-04-17T10:46:12.997Z,9.63
2023-04-17T10:48:52.913Z,9.62
2023-04-17T10:51:29.119Z,9.74
2023-04-17T10:53:57.848Z,9.57
2023-04-17T10:56:27.151Z,9.42
2023-04-17T10:59:18.416Z,9.44
2023-04-17T11:01:48.254Z,9.15
2023-04-17T11:04:23.741Z,9.16
2023-04-17T11:06:55.487Z,9.05
2023-04-17T11:09:23.853Z,8.96
2023-04-17T11:11:50.618Z,9.00
2023-04-17T11:14:19.149Z,9.31
2023-04-17T11:16:47.484Z,9.48
2023-04-17T11:19:19.225Z,9.76
2023-04-17T11:21:48.176Z,9.93
2023-04-17T11:24:25.287Z,9.97
2023-04-17T11:26:52.095Z,10.23
2023-04-17T11:29:20.499Z,10.40
2023-04-17T11:31:48.305Z,10.30
2023-04-17T11:34:18.426Z,10.28
2023-04-17T11:36:52.744Z,10.24
2023-04-17T11:39:21.264Z,9.97
2023-04-17T11:41:48.049Z,9.86
2023-04-17T11:44:16.879Z,9.67
2023-04-17T11:46:43.586Z,9.40
2023-04-17T11:49:11.703Z,9.25
2023-04-17T11:51:38.578Z,8.96
2023-04-17T11:54:05.465Z,9.09
2023-04-17T11:56:32.171Z,9.06
2023-04-17T11:59:00.205Z,8.78
2023-04-17T12:01:28.235Z,8.53
2023-04-17T12:03:57.126Z,8.56
2023-04-17T12:06:26.749Z,8.73
2023-04-17T12:08:54.834Z,8.81
2023-04-17T12:11:31.123Z,8.49
2023-04-17T12:13:57.818Z,8.51
2023-04-17T12:16:25.632Z,8.44
2023-04-17T12:18:52.828Z,8.60
2023-04-17T12:21:20.621Z,8.68
2023-04-17T12:23:47.720Z,8.61
2023-04-17T12:26:14.495Z,8.63
2023-04-17T12:28:41.160Z,8.59
2023-04-17T12:31:07.827Z,8.55
2023-04-17T12:33:34.724Z,8.53
2023-04-17T12:36:02.652Z,8.71
2023-04-17T12:38:29.814Z,8.62
2023-04-17T12:40:56.554Z,8.57
2023-04-17T12:43:23.212Z,8.52
2023-04-17T12:45:50.348Z,8.64
2023-04-17T12:48:17.105Z,8.60
2023-04-17T12:50:44.325Z,8.55
2023-04-17T12:53:13.309Z,8.72
2023-04-17T12:55:43.893Z,8.77
2023-04-17T12:58:12.176Z,8.73
2023-04-17T13:00:44.042Z,8.64
2023-04-17T13:03:12.107Z,8.58
2023-04-17T13:05:39.623Z,8.61
2023-04-17T13:08:06.453Z,8.56
2023-04-17T13:10:34.293Z,8.28
2023-04-17T13:13:03.541Z,8.23
2023-04-17T13:15:30.409Z,8.23
2023-04-17T13:17:57.222Z,8.35
2023-04-17T13:20:23.859Z,8.36
2023-04-17T13:22:50.569Z,8.41
2023-04-17T13:25:17.225Z,8.42
2023-04-17T13:27:43.885Z,8.41
2023-04-17T13:30:10.924Z,8.12
2023-04-17T13:32:37.723Z,8.10
2023-04-17T13:35:05.289Z,8.35
2023-04-17T13:37:32.088Z,8.19
2023-04-17T13:39:59.748Z,8.25
2023-04-17T13:42:26.793Z,8.35
2023-04-17T13:44:53.390Z,8.57
2023-04-17T13:47:20.080Z,8.60
2023-04-17T13:49:46.885Z,8.61
2023-04-17T13:52:13.653Z,8.50
2023-04-17T13:54:43.308Z,8.61
2023-04-17T13:57:10.570Z,8.43
2023-04-17T13:59:37.164Z,8.47
2023-04-17T14:02:04.237Z,8.51
2023-04-17T14:04:31.673Z,8.45
2023-04-17T14:06:59.328Z,8.36
2023-04-17T14:09:26.024Z,8.12
2023-04-17T14:11:52.750Z,8.07
2023-04-17T14:14:19.364Z,7.90
2023-04-17T14:16:50.883Z,8.03
2023-04-17T14:19:17.981Z,8.02
2023-04-17T14:21:44.900Z,8.00
2023-04-17T14:24:11.611Z,7.98
2023-04-17T14:26:38.671Z,8.07
2023-04-17T14:29:05.353Z,7.86
2023-04-17T14:31:32.404Z,7.73
2023-04-17T14:33:59.538Z,7.86
2023-04-17T14:36:26.330Z,7.79
2023-04-17T14:38:54.269Z,7.88
2023-04-17T14:41:21.027Z,7.91
2023-04-17T14:43:47.726Z,7.84
2023-04-17T14:46:14.461Z,7.93
2023-04-17T14:48:54.789Z,7.91
2023-04-17T14:51:23.769Z,7.87
2023-04-17T14:53:53.048Z,7.86
2023-04-17T14:56:21.472Z,7.88
2023-04-17T14:58:48.232Z,7.90
2023-04-17T15:01:14.904Z,7.73
2023-04-17T15:03:46.748Z,7.65
2023-04-17T15:06:15.731Z,7.57
2023-04-17T15:08:42.697Z,7.64
2023-04-17T15:11:09.422Z,7.68
2023-04-17T15:13:36.081Z,7.75
2023-04-17T15:16:02.823Z,7.71
2023-04-17T15:18:29.536Z,7.83
2023-04-17T15:20:56.150Z,7.64
2023-04-17T15:23:22.958Z,7.74
2023-04-17T15:25:49.646Z,7.84
2023-04-17T15:28:16.322Z,7.67
2023-04-17T15:30:43.031Z,7.63
2023-04-17T15:33:10.432Z,7.94
2023-04-17T15:35:37.725Z,7.75
2023-04-17T15:38:06.464Z,7.90
2023-04-17T15:40:33.978Z,7.94
2023-04-17T15:43:01.253Z,8.00
2023-04-17T15:45:27.975Z,8.05
2023-04-17T15:47:54.810Z,7.94
2023-04-17T15:50:22.080Z,7.97
2023-04-17T15:52:48.672Z,7.73
2023-04-17T15:55:15.361Z,7.72
2023-04-17T15:57:43.066Z,7.75
2023-04-17T16:00:10.550Z,7.72
2023-04-17T16:02:37.409Z,7.60
2023-04-17T16:05:04.589Z,7.74
2023-04-17T16:07:31.927Z,7.64
2023-04-17T16:09:58.977Z,7.45
2023-04-17T16:12:28.073Z,7.43
2023-04-17T16:14:54.836Z,7.56
2023-04-17T16:17:21.535Z,7.67
2023-04-17T16:19:50.359Z,7.47
2023-04-17T16:22:18.433Z,7.48
2023-04-17T16:24:45.127Z,7.46
2023-04-17T16:27:11.832Z,7.29
2023-04-17T16:29:38.431Z,7.39
2023-04-17T16:32:05.115Z,7.27
2023-04-17T16:34:31.700Z,7.26
2023-04-17T16:36:58.337Z,7.32
2023-04-17T16:39:24.924Z,7.47
2023-04-17T16:41:52.805Z,7.32
2023-04-17T16:44:19.794Z,7.40
2023-04-17T16:47:09.583Z,7.19
2023-04-17T16:49:32.989Z,7.22
2023-04-17T16:51:59.697Z,7.14
2023-04-17T16:54:26.483Z,7.16
2023-04-17T16:56:53.226Z,7.25
2023-04-17T16:59:19.847Z,7.18
2023-04-17T17:01:49.858Z,7.21
2023-04-17T17:04:16.660Z,7.12
2023-04-17T17:06:43.372Z,7.12
2023-04-17T17:09:10.054Z,7.15
2023-04-17T17:11:36.740Z,7.03
2023-04-17T17:14:20.901Z,6.96
2023-04-17T17:16:47.693Z,7.06
2023-04-17T17:19:14.847Z,7.07
2023-04-17T17:21:41.668Z,6.99
2023-04-17T17:24:08.310Z,6.83
2023-04-17T17:26:36.900Z,6.82
2023-04-17T17:29:03.792Z,6.75
2023-04-17T17:31:30.817Z,6.74
2023-04-17T17:34:12.020Z,6.74
2023-04-17T17:36:48.796Z,6.89
2023-04-17T17:39:15.546Z,6.84
2023-04-17T17:41:42.142Z,6.85
2023-04-17T17:44:08.717Z,6.76
2023-04-17T17:46:35.860Z,6.85
2023-04-17T17:49:02.617Z,6.74
2023-04-17T17:51:29.212Z,6.72
2023-04-17T17:53:55.812Z,6.72
2023-04-17T17:56:23.559Z,6.80
2023-04-17T17:58:51.164Z,6.77
2023-04-17T18:01:17.953Z,6.80
2023-04-17T18:03:46.672Z,6.72
2023-04-17T18:06:14.663Z,6.72
2023-04-17T18:08:41.281Z,6.73
2023-04-17T18:11:08.120Z,6.66
2023-04-17T18:13:34.699Z,6.62
2023-04-17T18:16:04.158Z,6.47
2023-04-17T18:18:30.921Z,6.38
2023-04-17T18:20:57.545Z,6.40
2023-04-17T18:23:24.144Z,6.47
2023-04-17T18:25:58.731Z,6.50
2023-04-17T18:28:25.940Z,6.45
2023-04-17T18:30:52.740Z,6.39
2023-04-17T18:33:19.488Z,6.53
2023-04-17T18:35:46.189Z,6.47
2023-04-17T18:38:12.820Z,6.39
2023-04-17T18:40:39.413Z,6.31
2023-04-17T18:43:06.254Z,6.44
2023-04-17T18:45:34.513Z,6.43
2023-04-17T18:48:01.230Z,6.47
2023-04-17T18:50:28.093Z,6.53
2023-04-17T18:52:54.714Z,6.50
2023-04-17T18:55:21.398Z,6.45
2023-04-17T18:57:48.092Z,6.44
2023-04-17T19:00:14.909Z,6.40
2023-04-17T19:02:41.959Z,6.27
2023-04-17T19:05:09.057Z,6.34
2023-04-17T19:07:35.789Z,6.23
2023-04-17T19:10:02.535Z,6.31
2023-04-17T19:12:30.486Z,6.38
2023-04-17T19:14:59.945Z,6.36
2023-04-17T19:17:26.592Z,6.22
2023-04-17T19:19:53.197Z,6.23
2023-04-17T19:22:20.029Z,6.25
2023-04-17T19:24:49.901Z,6.26
2023-04-17T19:27:17.145Z,6.29
2023-04-17T19:29:43.818Z,6.24
2023-04-17T19:32:10.910Z,6.30
2023-04-17T19:34:38.468Z,6.30
2023-04-17T19:37:05.421Z,6.24
2023-04-17T19:39:32.089Z,6.28
2023-04-17T19:41:58.744Z,6.28
2023-04-17T19:44:27.971Z,6.34
2023-04-17T19:46:55.331Z,6.30
2023-04-17T19:49:22.010Z,6.27
2023-04-17T19:51:48.659Z,6.24
2023-04-17T19:54:15.920Z,6.26
2023-04-17T19:56:42.598Z,6.22
2023-04-17T19:59:12.535Z,6.36
2023-04-17T20:01:42.080Z,6.37
2023-04-17T20:04:10.321Z,6.26
2023-04-17T20:06:37.172Z,6.33
2023-04-17T20:09:04.803Z,6.27
2023-04-17T20:11:31.455Z,6.23
2023-04-17T20:13:58.096Z,6.11
2023-04-17T20:16:24.932Z,6.31
2023-04-17T20:18:52.051Z,6.27
2023-04-17T20:21:18.845Z,6.16
2023-04-17T20:23:47.698Z,6.28
2023-04-17T20:26:14.912Z,6.20
2023-04-17T20:28:42.244Z,6.23
2023-04-17T20:31:09.006Z,5.99
2023-04-17T20:33:35.761Z,6.06
2023-04-17T20:36:03.109Z,6.05
2023-04-17T20:38:29.843Z,5.91
2023-04-17T20:40:56.629Z,5.96
2023-04-17T20:43:23.305Z,5.86
2023-04-17T20:45:50.412Z,5.90
2023-04-17T20:48:17.080Z,5.83
2023-04-17T20:50:44.546Z,5.74
2023-04-17T20:53:11.226Z,5.72
2023-04-17T20:55:38.207Z,5.64
2023-04-17T20:58:04.914Z,5.70
2023-04-17T21:00:31.648Z,5.61
2023-04-17T21:02:58.424Z,5.73
2023-04-17T21:05:25.101Z,5.55
2023-04-17T21:07:52.035Z,5.59
2023-04-17T21:10:19.986Z,5.58
2023-04-17T21:12:46.892Z,5.58
2023-04-17T21:15:13.523Z,5.54
2023-04-17T21:17:40.283Z,5.67
2023-04-17T21:20:07.659Z,5.48
2023-04-17T21:22:34.362Z,5.49
2023-04-17T21:25:01.083Z,5.42
2023-04-17T21:27:27.737Z,5.30
2023-04-17T21:29:54.386Z,5.29
2023-04-17T21:32:21.125Z,5.18
2023-04-17T21:34:47.886Z,5.16
2023-04-17T21:37:14.502Z,5.03
2023-04-17T21:39:41.113Z,5.01
2023-04-17T21:42:09.744Z,4.93
2023-04-17T21:44:36.344Z,4.92
2023-04-17T21:47:02.937Z,4.82
2023-04-17T21:49:29.532Z,4.76
2023-04-17T21:51:57.118Z,4.76
2023-04-17T21:54:25.353Z,4.74
2023-04-17T21:56:51.989Z,4.78
2023-04-17T21:59:18.694Z,4.68
2023-04-17T22:01:45.324Z,4.68
2023-04-17T22:04:12.059Z,4.73
2023-04-17T22:06:38.870Z,4.76
2023-04-17T22:09:05.540Z,4.70
2023-04-17T22:11:32.403Z,4.81
2023-04-17T22:13:59.045Z,4.64
2023-04-17T22:16:25.879Z,4.71
2023-04-17T22:18:52.609Z,4.70
2023-04-17T22:21:19.358Z,4.74
2023-04-17T22:23:46.045Z,4.77
2023-04-17T22:26:12.725Z,4.77
2023-04-17T22:28:39.340Z,4.68
2023-04-17T22:31:06.204Z,4.70
2023-04-17T22:33:32.823Z,4.52
2023-04-17T22:35:59.422Z,4.57
2023-04-17T22:38:26.042Z,4.68
2023-04-17T22:40:52.691Z,4.61
2023-04-17T22:43:19.329Z,4.61
2023-04-17T22:45:46.086Z,4.76
2023-04-17T22:48:12.799Z,4.73
2023-04-17T22:50:39.532Z,4.62
2023-04-17T22:53:06.165Z,4.70
2023-04-17T22:55:33.296Z,4.68
2023-04-17T22:58:01.491Z,4.75
2023-04-17T23:00:28.302Z,4.59
2023-04-17T23:02:55.066Z,4.58
2023-04-17T23:05:21.824Z,4.65
2023-04-17T23:07:48.601Z,4.65
2023-04-17T23:10:15.334Z,4.62
2023-04-17T23:12:44.238Z,4.62
2023-04-17T23:15:11.215Z,4.57
2023-04-17T23:17:37.878Z,4.57
2023-04-17T23:20:04.821Z,4.62
2023-04-17T23:22:31.475Z,4.61
2023-04-17T23:24:58.212Z,4.50
2023-04-17T23:27:24.887Z,4.49
2023-04-17T23:29:51.524Z,4.45
2023-04-17T23:32:18.308Z,4.47
2023-04-17T23:34:44.922Z,4.46
2023-04-17T23:37:11.962Z,4.31
2023-04-17T23:39:38.575Z,4.37
2023-04-17T23:42:07.908Z,4.19
2023-04-17T23:44:34.700Z,4.16
2023-04-17T23:47:02.985Z,4.11
2023-04-17T23:49:29.615Z,4.12
2023-04-17T23:51:56.552Z,4.03
2023-04-17T23:54:23.173Z,4.02
2023-04-17T23:56:49.831Z,3.86
2023-04-17T23:59:16.646Z,3.85
